Kristina — J8AJ8 — position and weather

sailwx.info

Track history (hours):
 
Tides and Currents Weather Stations Pressure Air Temp Water Temp Dewpoint Dewpoint Depression Visibility Wind Speed Wind Dir Waves Ship Positions

Kristina

Last reported at 2017-Nov-19 18:52 UTC. Time now 2017-Nov-21 11:56 UTC.
Position N 25°36' W 079°60'.

Length 64 m; draft 4.4 m.

Type: Cargo ship. MMSI: 375943000.

Date/timePositionNaut miles runAvg speedWind from/ knotsBaromVisibWave heightAir tempDewpointWater temp
2017-Nov-19 18:52N 25°36' W 079°60'3 6.7
2017-Nov-19 18:29N 25°38' W 080°01'3 6.4
2017-Nov-19 18:01N 25°41' W 080°02'4 7.0
2017-Nov-19 17:30N 25°44' W 080°04'4 7.1
2017-Nov-19 17:00N 25°46' W 080°07'3 6.4
2017-Nov-19 16:30N 25°46' W 080°11'1 2.3
2017-Nov-19 16:00N 25°47' W 080°12'2 2.8
2017-Nov-19 15:28N 25°47' W 080°14'0 0.1
2017-Nov-19 14:58N 25°47' W 080°14'0 0.0
2017-Nov-19 14:28N 25°47' W 080°14'0 0.0
2017-Nov-19 13:58N 25°47' W 080°14'0 0.0
2017-Nov-19 13:28N 25°47' W 080°14'0 0.0
2017-Nov-19 12:58N 25°47' W 080°14'0 0.0
2017-Nov-19 12:25N 25°47' W 080°14'0 0.0
2017-Nov-19 11:58N 25°47' W 080°14'0 0.0
2017-Nov-19 11:31N 25°47' W 080°14'0 0.0
2017-Nov-19 11:01N 25°47' W 080°14'0 0.0
2017-Nov-19 10:27N 25°47' W 080°14'0 0.0
2017-Nov-19 09:57N 25°47' W 080°14'0 0.0
2017-Nov-19 09:30N 25°47' W 080°14'0 0.0
2017-Nov-19 09:00N 25°47' W 080°14'0 0.0
2017-Nov-19 08:27N 25°47' W 080°14'0 0.0
2017-Nov-19 08:00N 25°47' W 080°14'0 0.0
2017-Nov-19 07:30N 25°47' W 080°14'0 0.0
2017-Nov-19 07:00N 25°47' W 080°14'0 0.0
2017-Nov-19 06:30N 25°47' W 080°14'0 0.0
2017-Nov-19 05:57N 25°47' W 080°14'0 0.0
2017-Nov-19 05:30N 25°47' W 080°14'0 0.0
2017-Nov-19 05:00N 25°47' W 080°14'0 0.0
2017-Nov-19 04:30N 25°47' W 080°14'0 0.0
2017-Nov-19 04:00N 25°47' W 080°14'0 0.0
2017-Nov-19 03:30N 25°47' W 080°14'0 0.0
2017-Nov-19 03:00N 25°47' W 080°14'0 0.0
2017-Nov-19 02:30N 25°47' W 080°14'0 0.0
2017-Nov-19 02:00N 25°47' W 080°14'0 0.0
2017-Nov-19 01:30N 25°47' W 080°14'0 0.0
2017-Nov-19 01:00N 25°47' W 080°14'0 0.0
2017-Nov-19 00:30N 25°47' W 080°14'0 0.0
2017-Nov-19 00:00N 25°47' W 080°14'0 0.0
2017-Nov-18 23:30N 25°47' W 080°14'0 0.0
2017-Nov-18 23:00N 25°47' W 080°14'0 0.0
2017-Nov-18 22:24N 25°47' W 080°14'0 0.0
2017-Nov-18 22:00N 25°47' W 080°14'0 0.0
2017-Nov-18 21:30N 25°47' W 080°14'0 0.0
2017-Nov-18 21:00N 25°47' W 080°14'0 0.0
2017-Nov-18 20:30N 25°47' W 080°14'0 0.0
2017-Nov-18 20:00N 25°47' W 080°14'0 0.0
2017-Nov-18 19:30N 25°47' W 080°14'0 0.0
2017-Nov-18 19:00N 25°47' W 080°14'0 0.0
2017-Nov-18 18:21N 25°47' W 080°14'0 0.0
2017-Nov-18 18:00N 25°47' W 080°14'0 0.0
2017-Nov-18 17:27N 25°47' W 080°14'0 0.0
2017-Nov-18 16:57N 25°47' W 080°14'0 0.0
2017-Nov-18 16:30N 25°47' W 080°14'0 0.0
2017-Nov-18 15:54N 25°47' W 080°14'0 0.0
2017-Nov-18 15:27N 25°47' W 080°14'0 0.0
2017-Nov-18 14:57N 25°47' W 080°14'0 0.0
2017-Nov-18 14:30N 25°47' W 080°14'0 0.0
2017-Nov-18 13:57N 25°47' W 080°14'0 0.0
2017-Nov-18 13:30N 25°47' W 080°14'0 0.0
2017-Nov-18 13:00N 25°47' W 080°14'0 0.0
2017-Nov-18 12:30N 25°47' W 080°14'0 0.0
2017-Nov-18 12:00N 25°47' W 080°14'0 0.0
2017-Nov-18 11:30N 25°47' W 080°14'0 0.0
2017-Nov-18 11:00N 25°47' W 080°14'0 0.0
2017-Nov-18 10:30N 25°47' W 080°14'0 0.0
2017-Nov-18 10:00N 25°47' W 080°14'0 0.0
2017-Nov-18 09:30N 25°47' W 080°14'0 0.0
2017-Nov-18 08:57N 25°47' W 080°14'0 0.0
2017-Nov-18 08:30N 25°47' W 080°14'0 0.0
2017-Nov-18 08:00N 25°47' W 080°14'0 0.0
2017-Nov-18 07:30N 25°47' W 080°14'0 0.0
2017-Nov-18 06:57N 25°47' W 080°14'0 0.0
2017-Nov-18 06:30N 25°47' W 080°14'0 0.0
2017-Nov-18 06:00N 25°47' W 080°14'0 0.0
2017-Nov-18 05:30N 25°47' W 080°14'0 0.0
2017-Nov-18 05:00N 25°47' W 080°14'0 0.0
2017-Nov-18 04:30N 25°47' W 080°14'0 0.0
2017-Nov-18 04:00N 25°47' W 080°14'0 0.0
2017-Nov-18 03:30N 25°47' W 080°14'0 0.0
2017-Nov-18 03:00N 25°47' W 080°14'0 0.0
2017-Nov-18 02:30N 25°47' W 080°14'0 0.0
2017-Nov-18 02:00N 25°47' W 080°14'0 0.0
2017-Nov-18 01:30N 25°47' W 080°14'0 0.0
2017-Nov-18 01:00N 25°47' W 080°14'0 0.0
2017-Nov-18 00:30N 25°47' W 080°14'0 0.0
2017-Nov-17 23:59N 25°47' W 080°14'0 0.0
2017-Nov-17 23:29N 25°47' W 080°14'0 0.0
2017-Nov-17 22:59N 25°47' W 080°14'0 0.0
2017-Nov-17 22:29N 25°47' W 080°14'0 0.0
2017-Nov-17 21:59N 25°47' W 080°14'0 0.0
2017-Nov-17 21:29N 25°47' W 080°14'0 0.0
2017-Nov-17 20:59N 25°47' W 080°14'0 0.0
2017-Nov-17 20:29N 25°47' W 080°14'0 0.0
2017-Nov-17 19:59N 25°47' W 080°14'0 0.0
2017-Nov-17 19:29N 25°47' W 080°14'0 0.0
2017-Nov-17 18:59N 25°47' W 080°14'0 0.0
2017-Nov-17 18:29N 25°47' W 080°14'0 0.0
2017-Nov-17 17:59N 25°47' W 080°14'0 0.0
2017-Nov-17 17:29N 25°47' W 080°14'0 0.0
2017-Nov-17 16:59N 25°47' W 080°14'0 0.0
2017-Nov-17 16:29N 25°47' W 080°14'0 0.0
2017-Nov-17 15:56N 25°47' W 080°14'0 0.0
2017-Nov-17 15:23N 25°47' W 080°14'0 0.0
2017-Nov-17 14:53N 25°47' W 080°14'0 0.0
2017-Nov-17 14:23N 25°47' W 080°14'0 0.0
2017-Nov-17 13:56N 25°47' W 080°14'0 0.0
2017-Nov-17 13:26N 25°47' W 080°14'0 0.0
2017-Nov-17 12:59N 25°47' W 080°14'0 0.0
2017-Nov-17 12:23N 25°47' W 080°14'0 0.0
2017-Nov-17 11:53N 25°47' W 080°14'0 0.0
2017-Nov-17 11:23N 25°47' W 080°14'0 0.0
2017-Nov-17 10:53N 25°47' W 080°14'0 0.0
2017-Nov-17 10:23N 25°47' W 080°14'0 0.0
2017-Nov-17 09:53N 25°47' W 080°14'0 0.0
2017-Nov-17 09:26N 25°47' W 080°14'0 0.0
2017-Nov-17 08:56N 25°47' W 080°14'0 0.0
2017-Nov-17 08:26N 25°47' W 080°14'0 0.0
2017-Nov-17 07:56N 25°47' W 080°14'0 0.0
2017-Nov-17 07:26N 25°47' W 080°14'0 0.0
2017-Nov-17 06:56N 25°47' W 080°14'0 0.0
2017-Nov-17 06:26N 25°47' W 080°14'0 0.0
2017-Nov-17 05:56N 25°47' W 080°14'0 0.0
2017-Nov-17 05:26N 25°47' W 080°14'0 0.0
2017-Nov-17 04:59N 25°47' W 080°14'0 0.0
2017-Nov-17 04:29N 25°47' W 080°14'0 0.0
2017-Nov-17 03:56N 25°47' W 080°14'0 0.0
2017-Nov-17 03:29N 25°47' W 080°14'0 0.0
2017-Nov-17 02:59N 25°47' W 080°14'0 0.0
2017-Nov-17 02:29N 25°47' W 080°14'0 0.0
2017-Nov-17 01:59N 25°47' W 080°14'0 0.0
2017-Nov-17 01:29N 25°47' W 080°14'0 0.0
2017-Nov-17 00:59N 25°47' W 080°14'0 0.0
2017-Nov-17 00:29N 25°47' W 080°14'0 0.0
2017-Nov-16 23:56N 25°47' W 080°14'0 0.0
2017-Nov-16 23:29N 25°47' W 080°14'0 0.0
2017-Nov-16 22:59N 25°47' W 080°14'0 0.0
2017-Nov-16 22:29N 25°47' W 080°14'0 0.0
2017-Nov-16 21:59N 25°47' W 080°14'0 0.0
2017-Nov-16 21:29N 25°47' W 080°14'0 0.0
2017-Nov-16 20:59N 25°47' W 080°14'0 0.0
2017-Nov-16 20:17N 25°47' W 080°14'0 0.0
2017-Nov-16 19:59N 25°47' W 080°14'0 0.0
2017-Nov-16 19:29N 25°47' W 080°14'0 0.0
2017-Nov-16 18:59N 25°47' W 080°14'0 0.0
2017-Nov-16 18:29N 25°47' W 080°14'0 0.0
2017-Nov-16 17:59N 25°47' W 080°14'0 0.0
2017-Nov-16 17:29N 25°47' W 080°14'0 0.0
2017-Nov-16 16:59N 25°47' W 080°14'0 0.0
2017-Nov-16 16:14N 25°47' W 080°14'0 0.0
2017-Nov-16 15:53N 25°47' W 080°14'0 0.0
2017-Nov-16 15:26N 25°47' W 080°14'0 0.0
2017-Nov-16 14:59N 25°47' W 080°14'0 0.0
2017-Nov-16 14:23N 25°47' W 080°14'0 0.0
2017-Nov-16 13:52N 25°47' W 080°14'0 0.0
2017-Nov-16 13:22N 25°47' W 080°14'0 0.0
2017-Nov-16 12:52N 25°47' W 080°14'0 0.0
2017-Nov-16 12:25N 25°47' W 080°14'0 0.0
2017-Nov-16 11:52N 25°47' W 080°14'0 0.0
2017-Nov-16 11:22N 25°47' W 080°14'0 0.0
2017-Nov-16 10:55N 25°47' W 080°14'0 0.0
2017-Nov-16 10:28N 25°47' W 080°14'0 0.0
2017-Nov-16 09:55N 25°47' W 080°14'0 0.0
2017-Nov-16 09:22N 25°47' W 080°14'0 0.0
2017-Nov-16 08:55N 25°47' W 080°14'0 0.0
2017-Nov-16 08:25N 25°47' W 080°14'0 0.0
2017-Nov-16 07:58N 25°47' W 080°14'0 0.0
2017-Nov-16 07:25N 25°47' W 080°14'0 0.0
2017-Nov-16 06:55N 25°47' W 080°14'0 0.0
2017-Nov-16 06:25N 25°47' W 080°14'0 0.0
2017-Nov-16 05:58N 25°47' W 080°14'0 0.0
2017-Nov-16 05:25N 25°47' W 080°14'0 0.0
2017-Nov-16 04:55N 25°47' W 080°14'0 0.0
2017-Nov-16 04:25N 25°47' W 080°14'0 0.0
2017-Nov-16 03:58N 25°47' W 080°14'0 0.0
2017-Nov-16 03:28N 25°47' W 080°14'0 0.0
2017-Nov-16 02:55N 25°47' W 080°14'0 0.0
2017-Nov-16 02:28N 25°47' W 080°14'0 0.0
2017-Nov-16 01:55N 25°47' W 080°14'0 0.0
2017-Nov-16 01:28N 25°47' W 080°14'0 0.0
2017-Nov-16 00:55N 25°47' W 080°14'0 0.0
2017-Nov-16 00:28N 25°47' W 080°14'0 0.0
2017-Nov-15 23:58N 25°47' W 080°14'0 0.0
2017-Nov-15 23:25N 25°47' W 080°14'0 0.0
2017-Nov-15 22:58N 25°47' W 080°14'0 0.0
2017-Nov-15 22:28N 25°47' W 080°14'0 0.0
2017-Nov-15 21:58N 25°47' W 080°14'0 0.0
2017-Nov-15 21:28N 25°47' W 080°14'0 0.0
2017-Nov-15 20:58N 25°47' W 080°14'0 0.0
2017-Nov-15 20:28N 25°47' W 080°14'0 0.0
2017-Nov-15 19:58N 25°47' W 080°14'0 0.0
2017-Nov-15 19:28N 25°47' W 080°14'0 0.0
2017-Nov-15 18:58N 25°47' W 080°14'0 0.0
2017-Nov-15 18:28N 25°47' W 080°14'0 0.0
2017-Nov-15 17:58N 25°47' W 080°14'0 0.0
2017-Nov-15 17:22N 25°47' W 080°14'0 0.0
2017-Nov-15 16:58N 25°47' W 080°14'0 0.0
2017-Nov-15 16:28N 25°47' W 080°14'0 0.0
2017-Nov-15 15:58N 25°47' W 080°14'0 0.0
2017-Nov-15 15:25N 25°47' W 080°14'0 0.0
2017-Nov-15 14:58N 25°47' W 080°14'0 0.0
2017-Nov-15 14:22N 25°47' W 080°14'0 0.0
2017-Nov-15 13:58N 25°47' W 080°14'0 0.0
2017-Nov-15 13:28N 25°47' W 080°14'0 0.0
2017-Nov-15 12:52N 25°47' W 080°14'0 0.0
2017-Nov-15 12:28N 25°47' W 080°14'0 0.0
2017-Nov-15 11:58N 25°47' W 080°14'0 0.0
2017-Nov-15 11:28N 25°47' W 080°14'0 0.0
2017-Nov-15 10:58N 25°47' W 080°14'0 0.0
2017-Nov-15 10:28N 25°47' W 080°14'0 0.0
2017-Nov-15 09:52N 25°47' W 080°14'0 0.0
2017-Nov-15 09:28N 25°47' W 080°14'0 0.0
2017-Nov-15 08:58N 25°47' W 080°14'0 0.0
2017-Nov-15 08:28N 25°47' W 080°14'0 0.0
2017-Nov-15 07:58N 25°47' W 080°14'0 0.0
2017-Nov-15 07:25N 25°47' W 080°14'0 0.0
2017-Nov-15 06:55N 25°47' W 080°14'0 0.0
2017-Nov-15 06:22N 25°47' W 080°14'0 0.0
2017-Nov-15 05:55N 25°47' W 080°14'0 0.0
2017-Nov-15 05:25N 25°47' W 080°14'0 0.0
2017-Nov-15 05:01N 25°47' W 080°14'0 0.0
2017-Nov-15 04:28N 25°47' W 080°14'0 0.0
2017-Nov-15 03:55N 25°47' W 080°14'0 0.0
2017-Nov-15 03:27N 25°47' W 080°14'0 0.0
2017-Nov-15 02:57N 25°47' W 080°14'0 0.0
2017-Nov-15 02:30N 25°47' W 080°14'0 0.0
2017-Nov-15 01:57N 25°47' W 080°14'0 0.0
2017-Nov-15 01:27N 25°47' W 080°14'0 0.0
2017-Nov-15 00:57N 25°47' W 080°14'0 0.0
2017-Nov-15 00:27N 25°47' W 080°14'0 0.0
2017-Nov-14 23:57N 25°47' W 080°14'0 0.0
2017-Nov-14 23:30N 25°47' W 080°14'0 0.0
2017-Nov-14 23:00N 25°47' W 080°14'0 0.0
2017-Nov-14 22:27N 25°47' W 080°14'0 0.0
2017-Nov-14 22:00N 25°47' W 080°14'0 0.0
2017-Nov-14 21:30N 25°47' W 080°14'0 0.0
2017-Nov-14 21:00N 25°47' W 080°14'0 0.0
2017-Nov-14 20:30N 25°47' W 080°14'0 0.0
2017-Nov-14 20:00N 25°47' W 080°14'0 0.0
2017-Nov-14 19:30N 25°47' W 080°14'0 0.0
2017-Nov-14 19:00N 25°47' W 080°14'0 0.0
2017-Nov-14 18:30N 25°47' W 080°14'0 0.0
2017-Nov-14 18:00N 25°47' W 080°14'0 0.0
2017-Nov-14 17:30N 25°47' W 080°14'0 0.0
2017-Nov-14 17:00N 25°47' W 080°14'0 0.0
2017-Nov-14 16:30N 25°47' W 080°14'0 0.0
2017-Nov-14 16:00N 25°47' W 080°14'0 0.0
2017-Nov-14 15:27N 25°47' W 080°14'0 0.0
2017-Nov-14 15:00N 25°47' W 080°14'0 0.0
2017-Nov-14 14:30N 25°47' W 080°14'0 0.0
2017-Nov-14 14:00N 25°47' W 080°14'0 0.0
2017-Nov-14 13:30N 25°47' W 080°14'0 0.0
2017-Nov-14 13:00N 25°47' W 080°14'0 0.0
2017-Nov-14 12:30N 25°47' W 080°14'0 0.0
2017-Nov-14 11:51N 25°47' W 080°14'0 0.0
2017-Nov-14 11:30N 25°47' W 080°14'0 0.0
2017-Nov-14 11:00N 25°47' W 080°14'0 0.0
2017-Nov-14 10:30N 25°47' W 080°14'0 0.0
2017-Nov-14 09:57N 25°47' W 080°14'0 0.0
2017-Nov-14 09:27N 25°47' W 080°14'0 0.0
2017-Nov-14 08:48N 25°47' W 080°14'0 0.0
2017-Nov-14 08:21N 25°47' W 080°14'0 0.0
2017-Nov-14 08:00N 25°47' W 080°14'0 0.0
2017-Nov-14 07:09N 25°47' W 080°14'0 0.0
2017-Nov-14 06:54N 25°47' W 080°14'0 0.0
2017-Nov-14 06:24N 25°47' W 080°14'0 0.0
2017-Nov-14 05:57N 25°47' W 080°14'0 0.0
2017-Nov-14 05:24N 25°47' W 080°14'0 0.0
2017-Nov-14 04:57N 25°47' W 080°14'0 0.0
2017-Nov-14 04:24N 25°47' W 080°14'0 0.0
2017-Nov-14 03:54N 25°47' W 080°14'0 0.0
2017-Nov-14 03:21N 25°47' W 080°14'0 0.0
2017-Nov-14 02:57N 25°47' W 080°14'0 0.0
2017-Nov-14 02:30N 25°47' W 080°14'0 0.0
2017-Nov-14 01:57N 25°47' W 080°14'0 0.0
2017-Nov-14 01:27N 25°47' W 080°14'0 0.0
2017-Nov-14 01:00N 25°47' W 080°14'0 0.0
2017-Nov-14 00:24N 25°47' W 080°14'0 0.0
2017-Nov-13 23:57N 25°47' W 080°14'0 0.0
2017-Nov-13 23:27N 25°47' W 080°14'0 0.0
2017-Nov-13 22:57N 25°47' W 080°14'0 0.0
2017-Nov-13 22:30N 25°47' W 080°14'0 0.0
2017-Nov-13 21:57N 25°47' W 080°14'0 0.0
2017-Nov-13 01:50N 25°47' W 080°14'0 0.0
2017-Nov-13 01:26N 25°47' W 080°14'0 0.0
2017-Nov-13 00:59N 25°47' W 080°14'0 0.0
2017-Nov-13 00:29N 25°47' W 080°14'0 0.0
2017-Nov-12 23:59N 25°47' W 080°14'0 0.0
2017-Nov-12 23:26N 25°47' W 080°14'0 0.0
2017-Nov-12 22:59N 25°47' W 080°14'0 0.0
2017-Nov-12 22:26N 25°47' W 080°14'0 0.0
2017-Nov-12 21:59N 25°47' W 080°14'0 0.0
2017-Nov-12 21:29N 25°47' W 080°14'0 0.0
2017-Nov-12 20:56N 25°47' W 080°14'0 0.0
2017-Nov-12 20:20N 25°47' W 080°14'0 0.0
2017-Nov-12 19:59N 25°47' W 080°14'0 0.0
2017-Nov-12 19:29N 25°47' W 080°14'0 0.0
2017-Nov-12 18:59N 25°47' W 080°14'0 0.0
2017-Nov-12 18:29N 25°47' W 080°14'0 0.0
2017-Nov-12 17:59N 25°47' W 080°14'0 0.0
2017-Nov-12 17:29N 25°47' W 080°14'0 0.0
2017-Nov-12 16:59N 25°47' W 080°14'0 0.0
2017-Nov-12 16:29N 25°47' W 080°14'0 0.0
2017-Nov-12 15:59N 25°47' W 080°14'0 0.0
2017-Nov-12 15:29N 25°47' W 080°14'0 0.0
2017-Nov-12 14:56N 25°47' W 080°14'0 0.0
2017-Nov-12 14:29N 25°47' W 080°14'0 0.0
2017-Nov-12 13:59N 25°47' W 080°14'0 0.0
2017-Nov-12 13:29N 25°47' W 080°14'0 0.0
2017-Nov-12 12:56N 25°47' W 080°14'0 0.0
2017-Nov-12 12:29N 25°47' W 080°14'0 0.0
2017-Nov-12 11:59N 25°47' W 080°14'0 0.0
2017-Nov-12 11:29N 25°47' W 080°14'0 0.0
2017-Nov-12 10:59N 25°47' W 080°14'0 0.0
2017-Nov-12 10:29N 25°47' W 080°14'0 0.0
2017-Nov-12 09:53N 25°47' W 080°14'0 0.0
2017-Nov-12 09:29N 25°47' W 080°14'0 0.0
2017-Nov-12 08:53N 25°47' W 080°14'0 0.0
2017-Nov-12 08:29N 25°47' W 080°14'0 0.0
2017-Nov-12 07:59N 25°47' W 080°14'0 0.0
2017-Nov-12 07:26N 25°47' W 080°14'0 0.0
2017-Nov-12 06:53N 25°47' W 080°14'0 0.0
2017-Nov-12 06:28N 25°47' W 080°14'0 0.0
2017-Nov-12 05:58N 25°47' W 080°14'0 0.0
2017-Nov-12 05:28N 25°47' W 080°14'0 0.0
2017-Nov-12 04:52N 25°47' W 080°14'0 0.0
2017-Nov-12 04:28N 25°47' W 080°14'0 0.0
2017-Nov-12 03:52N 25°47' W 080°14'0 0.0
2017-Nov-12 03:28N 25°47' W 080°14'0 0.0
2017-Nov-12 02:55N 25°47' W 080°14'0 0.0
2017-Nov-12 02:22N 25°47' W 080°14'0 0.0
2017-Nov-12 01:52N 25°47' W 080°14'0 0.0
2017-Nov-12 01:28N 25°47' W 080°14'0 0.0
2017-Nov-12 00:58N 25°47' W 080°14'0 0.0
2017-Nov-12 00:28N 25°47' W 080°14'0 0.0
2017-Nov-11 23:58N 25°47' W 080°14'0 0.0
2017-Nov-11 23:28N 25°47' W 080°14'0 0.0
2017-Nov-11 22:58N 25°47' W 080°14'0 0.0
2017-Nov-11 22:28N 25°47' W 080°14'0 0.0
2017-Nov-11 21:58N 25°47' W 080°14'0 0.0
2017-Nov-11 21:28N 25°47' W 080°14'0 0.0
2017-Nov-11 20:58N 25°47' W 080°14'0 0.0
2017-Nov-11 20:25N 25°47' W 080°14'0 0.0
2017-Nov-11 19:55N 25°47' W 080°14'0 0.0
2017-Nov-11 19:28N 25°47' W 080°14'0 0.0
2017-Nov-11 18:58N 25°47' W 080°14'0 0.0
2017-Nov-11 18:28N 25°47' W 080°14'0 0.0
2017-Nov-11 17:58N 25°47' W 080°14'0 0.0
2017-Nov-11 17:28N 25°47' W 080°14'0 0.0
2017-Nov-11 16:58N 25°47' W 080°14'0 0.0
2017-Nov-11 16:25N 25°47' W 080°14'0 0.0
2017-Nov-11 15:55N 25°47' W 080°14'0 0.0
2017-Nov-11 15:28N 25°47' W 080°14'0 0.0
2017-Nov-11 14:58N 25°47' W 080°14'0 0.0
2017-Nov-11 14:25N 25°47' W 080°14'0 0.0
2017-Nov-11 13:58N 25°47' W 080°14'0 0.0
2017-Nov-11 13:28N 25°47' W 080°14'0 0.0
2017-Nov-11 12:58N 25°47' W 080°14'0 0.0
2017-Nov-11 12:28N 25°47' W 080°14'0 0.0
2017-Nov-11 11:58N 25°47' W 080°14'0 0.0
2017-Nov-11 11:28N 25°47' W 080°14'0 0.0
2017-Nov-11 10:58N 25°47' W 080°14'0 0.0
2017-Nov-11 10:16N 25°47' W 080°14'0 0.0
2017-Nov-11 09:58N 25°47' W 080°14'0 0.0
2017-Nov-11 09:28N 25°47' W 080°14'0 0.0
2017-Nov-11 08:58N 25°47' W 080°14'0 0.0
2017-Nov-11 08:19N 25°47' W 080°14'0 0.0
2017-Nov-11 07:58N 25°47' W 080°14'0 0.0
2017-Nov-11 07:19N 25°47' W 080°14'0 0.0
2017-Nov-11 06:58N 25°47' W 080°14'0 0.0
2017-Nov-11 06:25N 25°47' W 080°14'0 0.0
2017-Nov-11 05:58N 25°47' W 080°14'0 0.0
2017-Nov-11 05:25N 25°47' W 080°14'0 0.0
2017-Nov-11 04:58N 25°47' W 080°14'0 0.0
2017-Nov-11 04:28N 25°47' W 080°14'0 0.0
2017-Nov-11 03:55N 25°47' W 080°14'0 0.0
2017-Nov-11 03:28N 25°47' W 080°14'0 0.0
2017-Nov-11 02:58N 25°47' W 080°14'0 0.0
2017-Nov-11 02:28N 25°47' W 080°14'0 0.0
2017-Nov-11 01:58N 25°47' W 080°14'0 0.0
2017-Nov-11 01:28N 25°47' W 080°14'0 0.0
2017-Nov-11 00:58N 25°47' W 080°14'0 0.0
2017-Nov-11 00:28N 25°47' W 080°14'0 0.0
2017-Nov-10 23:58N 25°47' W 080°14'0 0.0
2017-Nov-10 23:28N 25°47' W 080°14'0 0.0
2017-Nov-10 22:58N 25°47' W 080°14'0 0.0
2017-Nov-10 22:25N 25°47' W 080°14'0 0.0
2017-Nov-10 21:58N 25°47' W 080°14'0 0.0
2017-Nov-10 21:28N 25°47' W 080°14'0 0.0
2017-Nov-10 20:58N 25°47' W 080°14'0 0.0
2017-Nov-10 20:24N 25°47' W 080°14'0 0.0
2017-Nov-10 19:57N 25°47' W 080°14'0 0.0
2017-Nov-10 19:30N 25°47' W 080°14'0 0.0
2017-Nov-10 19:00N 25°47' W 080°14'0 0.0
2017-Nov-10 18:30N 25°47' W 080°14'0 0.0
2017-Nov-10 17:57N 25°47' W 080°14'0 0.0
2017-Nov-10 17:27N 25°47' W 080°14'0 0.0
2017-Nov-10 16:54N 25°47' W 080°14'0 0.0
2017-Nov-10 16:30N 25°47' W 080°14'0 0.0
2017-Nov-10 15:57N 25°47' W 080°14'0 0.0
2017-Nov-10 15:30N 25°47' W 080°14'0 0.0
2017-Nov-10 14:57N 25°47' W 080°14'0 0.0
2017-Nov-10 14:30N 25°47' W 080°14'0 0.0
2017-Nov-10 13:57N 25°47' W 080°14'0 0.0
2017-Nov-10 13:27N 25°47' W 080°14'0 0.0
2017-Nov-10 13:00N 25°47' W 080°14'0 0.0
2017-Nov-10 12:30N 25°47' W 080°14'0 0.0
2017-Nov-10 12:00N 25°47' W 080°14'0 0.0
2017-Nov-10 11:30N 25°47' W 080°14'0 0.0
2017-Nov-10 11:00N 25°47' W 080°14'0 0.0
2017-Nov-10 10:30N 25°47' W 080°14'0 0.0
2017-Nov-10 10:00N 25°47' W 080°14'0 0.0
2017-Nov-10 09:30N 25°47' W 080°14'0 0.0
2017-Nov-10 09:00N 25°47' W 080°14'0 0.0
2017-Nov-10 08:30N 25°47' W 080°14'0 0.0
2017-Nov-10 08:00N 25°47' W 080°14'0 0.0
2017-Nov-10 07:30N 25°47' W 080°14'0 0.0
2017-Nov-10 07:00N 25°47' W 080°14'0 0.0
2017-Nov-10 06:30N 25°47' W 080°14'0 0.0
2017-Nov-10 06:00N 25°47' W 080°14'0 0.0
2017-Nov-10 05:30N 25°47' W 080°14'0 0.0
2017-Nov-10 05:00N 25°47' W 080°14'0 0.0
2017-Nov-10 04:30N 25°47' W 080°14'0 0.0
2017-Nov-10 04:00N 25°47' W 080°14'0 0.0
2017-Nov-10 03:30N 25°47' W 080°14'0 0.0
2017-Nov-10 03:00N 25°47' W 080°14'0 0.0
2017-Nov-10 02:30N 25°47' W 080°14'0 0.0
2017-Nov-10 01:54N 25°47' W 080°14'0 0.0
2017-Nov-10 01:30N 25°47' W 080°14'0 0.0
2017-Nov-10 01:00N 25°47' W 080°14'0 0.0
2017-Nov-10 00:27N 25°47' W 080°14'0 0.0
2017-Nov-09 23:51N 25°47' W 080°14'0 0.0
2017-Nov-09 23:24N 25°47' W 080°14'0 0.0
2017-Nov-09 22:57N 25°47' W 080°14'0 0.0
2017-Nov-09 22:30N 25°47' W 080°14'0 0.0
2017-Nov-09 21:54N 25°47' W 080°14'0 0.0
2017-Nov-09 21:30N 25°47' W 080°14'0 0.0
2017-Nov-09 21:00N 25°47' W 080°14'0 0.0
2017-Nov-09 20:27N 25°47' W 080°14'0 0.0
2017-Nov-09 19:57N 25°47' W 080°14'0 0.0
2017-Nov-09 19:27N 25°47' W 080°14'0 0.0
2017-Nov-09 18:57N 25°47' W 080°14'  
Track history (hours):
 
Tides and Currents Weather Stations Pressure Air Temp Water Temp Dewpoint Dewpoint Depression Visibility Wind Speed Wind Dir Waves Ship Positions

Kristina

Last reported at 2017-Nov-19 18:52 UTC. Time now 2017-Nov-21 11:56 UTC.
Position N 25°36' W 079°60'.

Length 64 m; draft 4.4 m.

Type: Cargo ship. MMSI: 375943000.

Date/timePositionNaut miles runAvg speedWind from/ knotsBaromVisibWave heightAir tempDewpointWater temp
2017-Nov-19 18:52N 25°36' W 079°60'3 6.7
2017-Nov-19 18:29N 25°38' W 080°01'3 6.4
2017-Nov-19 18:01N 25°41' W 080°02'4 7.0
2017-Nov-19 17:30N 25°44' W 080°04'4 7.1
2017-Nov-19 17:00N 25°46' W 080°07'3 6.4
2017-Nov-19 16:30N 25°46' W 080°11'1 2.3
2017-Nov-19 16:00N 25°47' W 080°12'2 2.8
2017-Nov-19 15:28N 25°47' W 080°14'0 0.1
2017-Nov-19 14:58N 25°47' W 080°14'0 0.0
2017-Nov-19 14:28N 25°47' W 080°14'0 0.0
2017-Nov-19 13:58N 25°47' W 080°14'0 0.0
2017-Nov-19 13:28N 25°47' W 080°14'0 0.0
2017-Nov-19 12:58N 25°47' W 080°14'0 0.0
2017-Nov-19 12:25N 25°47' W 080°14'0 0.0
2017-Nov-19 11:58N 25°47' W 080°14'0 0.0
2017-Nov-19 11:31N 25°47' W 080°14'0 0.0
2017-Nov-19 11:01N 25°47' W 080°14'0 0.0
2017-Nov-19 10:27N 25°47' W 080°14'0 0.0
2017-Nov-19 09:57N 25°47' W 080°14'0 0.0
2017-Nov-19 09:30N 25°47' W 080°14'0 0.0
2017-Nov-19 09:00N 25°47' W 080°14'0 0.0
2017-Nov-19 08:27N 25°47' W 080°14'0 0.0
2017-Nov-19 08:00N 25°47' W 080°14'0 0.0
2017-Nov-19 07:30N 25°47' W 080°14'0 0.0
2017-Nov-19 07:00N 25°47' W 080°14'0 0.0
2017-Nov-19 06:30N 25°47' W 080°14'0 0.0
2017-Nov-19 05:57N 25°47' W 080°14'0 0.0
2017-Nov-19 05:30N 25°47' W 080°14'0 0.0
2017-Nov-19 05:00N 25°47' W 080°14'0 0.0
2017-Nov-19 04:30N 25°47' W 080°14'0 0.0
2017-Nov-19 04:00N 25°47' W 080°14'0 0.0
2017-Nov-19 03:30N 25°47' W 080°14'0 0.0
2017-Nov-19 03:00N 25°47' W 080°14'0 0.0
2017-Nov-19 02:30N 25°47' W 080°14'0 0.0
2017-Nov-19 02:00N 25°47' W 080°14'0 0.0
2017-Nov-19 01:30N 25°47' W 080°14'0 0.0
2017-Nov-19 01:00N 25°47' W 080°14'0 0.0
2017-Nov-19 00:30N 25°47' W 080°14'0 0.0
2017-Nov-19 00:00N 25°47' W 080°14'0 0.0
2017-Nov-18 23:30N 25°47' W 080°14'0 0.0
2017-Nov-18 23:00N 25°47' W 080°14'0 0.0
2017-Nov-18 22:24N 25°47' W 080°14'0 0.0
2017-Nov-18 22:00N 25°47' W 080°14'0 0.0
2017-Nov-18 21:30N 25°47' W 080°14'0 0.0
2017-Nov-18 21:00N 25°47' W 080°14'0 0.0
2017-Nov-18 20:30N 25°47' W 080°14'0 0.0
2017-Nov-18 20:00N 25°47' W 080°14'0 0.0
2017-Nov-18 19:30N 25°47' W 080°14'0 0.0
2017-Nov-18 19:00N 25°47' W 080°14'0 0.0
2017-Nov-18 18:21N 25°47' W 080°14'0 0.0
2017-Nov-18 18:00N 25°47' W 080°14'0 0.0
2017-Nov-18 17:27N 25°47' W 080°14'0 0.0
2017-Nov-18 16:57N 25°47' W 080°14'0 0.0
2017-Nov-18 16:30N 25°47' W 080°14'0 0.0
2017-Nov-18 15:54N 25°47' W 080°14'0 0.0
2017-Nov-18 15:27N 25°47' W 080°14'0 0.0
2017-Nov-18 14:57N 25°47' W 080°14'0 0.0
2017-Nov-18 14:30N 25°47' W 080°14'0 0.0
2017-Nov-18 13:57N 25°47' W 080°14'0 0.0
2017-Nov-18 13:30N 25°47' W 080°14'0 0.0
2017-Nov-18 13:00N 25°47' W 080°14'0 0.0
2017-Nov-18 12:30N 25°47' W 080°14'0 0.0
2017-Nov-18 12:00N 25°47' W 080°14'0 0.0
2017-Nov-18 11:30N 25°47' W 080°14'0 0.0
2017-Nov-18 11:00N 25°47' W 080°14'0 0.0
2017-Nov-18 10:30N 25°47' W 080°14'0 0.0
2017-Nov-18 10:00N 25°47' W 080°14'0 0.0
2017-Nov-18 09:30N 25°47' W 080°14'0 0.0
2017-Nov-18 08:57N 25°47' W 080°14'0 0.0
2017-Nov-18 08:30N 25°47' W 080°14'0 0.0
2017-Nov-18 08:00N 25°47' W 080°14'0 0.0
2017-Nov-18 07:30N 25°47' W 080°14'0 0.0
2017-Nov-18 06:57N 25°47' W 080°14'0 0.0
2017-Nov-18 06:30N 25°47' W 080°14'0 0.0
2017-Nov-18 06:00N 25°47' W 080°14'0 0.0
2017-Nov-18 05:30N 25°47' W 080°14'0 0.0
2017-Nov-18 05:00N 25°47' W 080°14'0 0.0
2017-Nov-18 04:30N 25°47' W 080°14'0 0.0
2017-Nov-18 04:00N 25°47' W 080°14'0 0.0
2017-Nov-18 03:30N 25°47' W 080°14'0 0.0
2017-Nov-18 03:00N 25°47' W 080°14'0 0.0
2017-Nov-18 02:30N 25°47' W 080°14'0 0.0
2017-Nov-18 02:00N 25°47' W 080°14'0 0.0
2017-Nov-18 01:30N 25°47' W 080°14'0 0.0
2017-Nov-18 01:00N 25°47' W 080°14'0 0.0
2017-Nov-18 00:30N 25°47' W 080°14'0 0.0
2017-Nov-17 23:59N 25°47' W 080°14'0 0.0
2017-Nov-17 23:29N 25°47' W 080°14'0 0.0
2017-Nov-17 22:59N 25°47' W 080°14'0 0.0
2017-Nov-17 22:29N 25°47' W 080°14'0 0.0
2017-Nov-17 21:59N 25°47' W 080°14'0 0.0
2017-Nov-17 21:29N 25°47' W 080°14'0 0.0
2017-Nov-17 20:59N 25°47' W 080°14'0 0.0
2017-Nov-17 20:29N 25°47' W 080°14'0 0.0
2017-Nov-17 19:59N 25°47' W 080°14'0 0.0
2017-Nov-17 19:29N 25°47' W 080°14'0 0.0
2017-Nov-17 18:59N 25°47' W 080°14'0 0.0
2017-Nov-17 18:29N 25°47' W 080°14'0 0.0
2017-Nov-17 17:59N 25°47' W 080°14'0 0.0
2017-Nov-17 17:29N 25°47' W 080°14'0 0.0
2017-Nov-17 16:59N 25°47' W 080°14'0 0.0
2017-Nov-17 16:29N 25°47' W 080°14'0 0.0
2017-Nov-17 15:56N 25°47' W 080°14'0 0.0
2017-Nov-17 15:23N 25°47' W 080°14'0 0.0
2017-Nov-17 14:53N 25°47' W 080°14'0 0.0
2017-Nov-17 14:23N 25°47' W 080°14'0 0.0
2017-Nov-17 13:56N 25°47' W 080°14'0 0.0
2017-Nov-17 13:26N 25°47' W 080°14'0 0.0
2017-Nov-17 12:59N 25°47' W 080°14'0 0.0
2017-Nov-17 12:23N 25°47' W 080°14'0 0.0
2017-Nov-17 11:53N 25°47' W 080°14'0 0.0
2017-Nov-17 11:23N 25°47' W 080°14'0 0.0
2017-Nov-17 10:53N 25°47' W 080°14'0 0.0
2017-Nov-17 10:23N 25°47' W 080°14'0 0.0
2017-Nov-17 09:53N 25°47' W 080°14'0 0.0
2017-Nov-17 09:26N 25°47' W 080°14'0 0.0
2017-Nov-17 08:56N 25°47' W 080°14'0 0.0
2017-Nov-17 08:26N 25°47' W 080°14'0 0.0
2017-Nov-17 07:56N 25°47' W 080°14'0 0.0
2017-Nov-17 07:26N 25°47' W 080°14'0 0.0
2017-Nov-17 06:56N 25°47' W 080°14'0 0.0
2017-Nov-17 06:26N 25°47' W 080°14'0 0.0
2017-Nov-17 05:56N 25°47' W 080°14'0 0.0
2017-Nov-17 05:26N 25°47' W 080°14'0 0.0
2017-Nov-17 04:59N 25°47' W 080°14'0 0.0
2017-Nov-17 04:29N 25°47' W 080°14'0 0.0
2017-Nov-17 03:56N 25°47' W 080°14'0 0.0
2017-Nov-17 03:29N 25°47' W 080°14'0 0.0
2017-Nov-17 02:59N 25°47' W 080°14'0 0.0
2017-Nov-17 02:29N 25°47' W 080°14'0 0.0
2017-Nov-17 01:59N 25°47' W 080°14'0 0.0
2017-Nov-17 01:29N 25°47' W 080°14'0 0.0
2017-Nov-17 00:59N 25°47' W 080°14'0 0.0
2017-Nov-17 00:29N 25°47' W 080°14'0 0.0
2017-Nov-16 23:56N 25°47' W 080°14'0 0.0
2017-Nov-16 23:29N 25°47' W 080°14'0 0.0
2017-Nov-16 22:59N 25°47' W 080°14'0 0.0
2017-Nov-16 22:29N 25°47' W 080°14'0 0.0
2017-Nov-16 21:59N 25°47' W 080°14'0 0.0
2017-Nov-16 21:29N 25°47' W 080°14'0 0.0
2017-Nov-16 20:59N 25°47' W 080°14'0 0.0
2017-Nov-16 20:17N 25°47' W 080°14'0 0.0
2017-Nov-16 19:59N 25°47' W 080°14'0 0.0
2017-Nov-16 19:29N 25°47' W 080°14'0 0.0
2017-Nov-16 18:59N 25°47' W 080°14'0 0.0
2017-Nov-16 18:29N 25°47' W 080°14'0 0.0
2017-Nov-16 17:59N 25°47' W 080°14'0 0.0
2017-Nov-16 17:29N 25°47' W 080°14'0 0.0
2017-Nov-16 16:59N 25°47' W 080°14'0 0.0
2017-Nov-16 16:14N 25°47' W 080°14'0 0.0
2017-Nov-16 15:53N 25°47' W 080°14'0 0.0
2017-Nov-16 15:26N 25°47' W 080°14'0 0.0
2017-Nov-16 14:59N 25°47' W 080°14'0 0.0
2017-Nov-16 14:23N 25°47' W 080°14'0 0.0
2017-Nov-16 13:52N 25°47' W 080°14'0 0.0
2017-Nov-16 13:22N 25°47' W 080°14'0 0.0
2017-Nov-16 12:52N 25°47' W 080°14'0 0.0
2017-Nov-16 12:25N 25°47' W 080°14'0 0.0
2017-Nov-16 11:52N 25°47' W 080°14'0 0.0
2017-Nov-16 11:22N 25°47' W 080°14'0 0.0
2017-Nov-16 10:55N 25°47' W 080°14'0 0.0
2017-Nov-16 10:28N 25°47' W 080°14'0 0.0
2017-Nov-16 09:55N 25°47' W 080°14'0 0.0
2017-Nov-16 09:22N 25°47' W 080°14'0 0.0
2017-Nov-16 08:55N 25°47' W 080°14'0 0.0
2017-Nov-16 08:25N 25°47' W 080°14'0 0.0
2017-Nov-16 07:58N 25°47' W 080°14'0 0.0
2017-Nov-16 07:25N 25°47' W 080°14'0 0.0
2017-Nov-16 06:55N 25°47' W 080°14'0 0.0
2017-Nov-16 06:25N 25°47' W 080°14'0 0.0
2017-Nov-16 05:58N 25°47' W 080°14'0 0.0
2017-Nov-16 05:25N 25°47' W 080°14'0 0.0
2017-Nov-16 04:55N 25°47' W 080°14'0 0.0
2017-Nov-16 04:25N 25°47' W 080°14'0 0.0
2017-Nov-16 03:58N 25°47' W 080°14'0 0.0
2017-Nov-16 03:28N 25°47' W 080°14'0 0.0
2017-Nov-16 02:55N 25°47' W 080°14'0 0.0
2017-Nov-16 02:28N 25°47' W 080°14'0 0.0
2017-Nov-16 01:55N 25°47' W 080°14'0 0.0
2017-Nov-16 01:28N 25°47' W 080°14'0 0.0
2017-Nov-16 00:55N 25°47' W 080°14'0 0.0
2017-Nov-16 00:28N 25°47' W 080°14'0 0.0
2017-Nov-15 23:58N 25°47' W 080°14'0 0.0
2017-Nov-15 23:25N 25°47' W 080°14'0 0.0
2017-Nov-15 22:58N 25°47' W 080°14'0 0.0
2017-Nov-15 22:28N 25°47' W 080°14'0 0.0
2017-Nov-15 21:58N 25°47' W 080°14'0 0.0
2017-Nov-15 21:28N 25°47' W 080°14'0 0.0
2017-Nov-15 20:58N 25°47' W 080°14'0 0.0
2017-Nov-15 20:28N 25°47' W 080°14'0 0.0
2017-Nov-15 19:58N 25°47' W 080°14'0 0.0
2017-Nov-15 19:28N 25°47' W 080°14'0 0.0
2017-Nov-15 18:58N 25°47' W 080°14'0 0.0
2017-Nov-15 18:28N 25°47' W 080°14'0 0.0
2017-Nov-15 17:58N 25°47' W 080°14'0 0.0
2017-Nov-15 17:22N 25°47' W 080°14'0 0.0
2017-Nov-15 16:58N 25°47' W 080°14'0 0.0
2017-Nov-15 16:28N 25°47' W 080°14'0 0.0
2017-Nov-15 15:58N 25°47' W 080°14'0 0.0
2017-Nov-15 15:25N 25°47' W 080°14'0 0.0
2017-Nov-15 14:58N 25°47' W 080°14'0 0.0
2017-Nov-15 14:22N 25°47' W 080°14'0 0.0
2017-Nov-15 13:58N 25°47' W 080°14'0 0.0
2017-Nov-15 13:28N 25°47' W 080°14'0 0.0
2017-Nov-15 12:52N 25°47' W 080°14'0 0.0
2017-Nov-15 12:28N 25°47' W 080°14'0 0.0
2017-Nov-15 11:58N 25°47' W 080°14'0 0.0
2017-Nov-15 11:28N 25°47' W 080°14'0 0.0
2017-Nov-15 10:58N 25°47' W 080°14'0 0.0
2017-Nov-15 10:28N 25°47' W 080°14'0 0.0
2017-Nov-15 09:52N 25°47' W 080°14'0 0.0
2017-Nov-15 09:28N 25°47' W 080°14'0 0.0
2017-Nov-15 08:58N 25°47' W 080°14'0 0.0
2017-Nov-15 08:28N 25°47' W 080°14'0 0.0
2017-Nov-15 07:58N 25°47' W 080°14'0 0.0
2017-Nov-15 07:25N 25°47' W 080°14'0 0.0
2017-Nov-15 06:55N 25°47' W 080°14'0 0.0
2017-Nov-15 06:22N 25°47' W 080°14'0 0.0
2017-Nov-15 05:55N 25°47' W 080°14'0 0.0
2017-Nov-15 05:25N 25°47' W 080°14'0 0.0
2017-Nov-15 05:01N 25°47' W 080°14'0 0.0
2017-Nov-15 04:28N 25°47' W 080°14'0 0.0
2017-Nov-15 03:55N 25°47' W 080°14'0 0.0
2017-Nov-15 03:27N 25°47' W 080°14'0 0.0
2017-Nov-15 02:57N 25°47' W 080°14'0 0.0
2017-Nov-15 02:30N 25°47' W 080°14'0 0.0
2017-Nov-15 01:57N 25°47' W 080°14'0 0.0
2017-Nov-15 01:27N 25°47' W 080°14'0 0.0
2017-Nov-15 00:57N 25°47' W 080°14'0 0.0
2017-Nov-15 00:27N 25°47' W 080°14'0 0.0
2017-Nov-14 23:57N 25°47' W 080°14'0 0.0
2017-Nov-14 23:30N 25°47' W 080°14'0 0.0
2017-Nov-14 23:00N 25°47' W 080°14'0 0.0
2017-Nov-14 22:27N 25°47' W 080°14'0 0.0
2017-Nov-14 22:00N 25°47' W 080°14'0 0.0
2017-Nov-14 21:30N 25°47' W 080°14'0 0.0
2017-Nov-14 21:00N 25°47' W 080°14'0 0.0
2017-Nov-14 20:30N 25°47' W 080°14'0 0.0
2017-Nov-14 20:00N 25°47' W 080°14'0 0.0
2017-Nov-14 19:30N 25°47' W 080°14'0 0.0
2017-Nov-14 19:00N 25°47' W 080°14'0 0.0
2017-Nov-14 18:30N 25°47' W 080°14'0 0.0
2017-Nov-14 18:00N 25°47' W 080°14'0 0.0
2017-Nov-14 17:30N 25°47' W 080°14'0 0.0
2017-Nov-14 17:00N 25°47' W 080°14'0 0.0
2017-Nov-14 16:30N 25°47' W 080°14'0 0.0
2017-Nov-14 16:00N 25°47' W 080°14'0 0.0
2017-Nov-14 15:27N 25°47' W 080°14'0 0.0
2017-Nov-14 15:00N 25°47' W 080°14'0 0.0
2017-Nov-14 14:30N 25°47' W 080°14'0 0.0
2017-Nov-14 14:00N 25°47' W 080°14'0 0.0
2017-Nov-14 13:30N 25°47' W 080°14'0 0.0
2017-Nov-14 13:00N 25°47' W 080°14'0 0.0
2017-Nov-14 12:30N 25°47' W 080°14'0 0.0
2017-Nov-14 11:51N 25°47' W 080°14'0 0.0
2017-Nov-14 11:30N 25°47' W 080°14'0 0.0
2017-Nov-14 11:00N 25°47' W 080°14'0 0.0
2017-Nov-14 10:30N 25°47' W 080°14'0 0.0
2017-Nov-14 09:57N 25°47' W 080°14'0 0.0
2017-Nov-14 09:27N 25°47' W 080°14'0 0.0
2017-Nov-14 08:48N 25°47' W 080°14'0 0.0
2017-Nov-14 08:21N 25°47' W 080°14'0 0.0
2017-Nov-14 08:00N 25°47' W 080°14'0 0.0
2017-Nov-14 07:09N 25°47' W 080°14'0 0.0
2017-Nov-14 06:54N 25°47' W 080°14'0 0.0
2017-Nov-14 06:24N 25°47' W 080°14'0 0.0
2017-Nov-14 05:57N 25°47' W 080°14'0 0.0
2017-Nov-14 05:24N 25°47' W 080°14'0 0.0
2017-Nov-14 04:57N 25°47' W 080°14'0 0.0
2017-Nov-14 04:24N 25°47' W 080°14'0 0.0
2017-Nov-14 03:54N 25°47' W 080°14'0 0.0
2017-Nov-14 03:21N 25°47' W 080°14'0 0.0
2017-Nov-14 02:57N 25°47' W 080°14'0 0.0
2017-Nov-14 02:30N 25°47' W 080°14'0 0.0
2017-Nov-14 01:57N 25°47' W 080°14'0 0.0
2017-Nov-14 01:27N 25°47' W 080°14'0 0.0
2017-Nov-14 01:00N 25°47' W 080°14'0 0.0
2017-Nov-14 00:24N 25°47' W 080°14'0 0.0
2017-Nov-13 23:57N 25°47' W 080°14'0 0.0
2017-Nov-13 23:27N 25°47' W 080°14'0 0.0
2017-Nov-13 22:57N 25°47' W 080°14'0 0.0
2017-Nov-13 22:30N 25°47' W 080°14'0 0.0
2017-Nov-13 21:57N 25°47' W 080°14'0 0.0
2017-Nov-13 01:50N 25°47' W 080°14'0 0.0
2017-Nov-13 01:26N 25°47' W 080°14'0 0.0
2017-Nov-13 00:59N 25°47' W 080°14'0 0.0
2017-Nov-13 00:29N 25°47' W 080°14'0 0.0
2017-Nov-12 23:59N 25°47' W 080°14'0 0.0
2017-Nov-12 23:26N 25°47' W 080°14'0 0.0
2017-Nov-12 22:59N 25°47' W 080°14'0 0.0
2017-Nov-12 22:26N 25°47' W 080°14'0 0.0
2017-Nov-12 21:59N 25°47' W 080°14'0 0.0
2017-Nov-12 21:29N 25°47' W 080°14'0 0.0
2017-Nov-12 20:56N 25°47' W 080°14'0 0.0
2017-Nov-12 20:20N 25°47' W 080°14'0 0.0
2017-Nov-12 19:59N 25°47' W 080°14'0 0.0
2017-Nov-12 19:29N 25°47' W 080°14'0 0.0
2017-Nov-12 18:59N 25°47' W 080°14'0 0.0
2017-Nov-12 18:29N 25°47' W 080°14'0 0.0
2017-Nov-12 17:59N 25°47' W 080°14'0 0.0
2017-Nov-12 17:29N 25°47' W 080°14'0 0.0
2017-Nov-12 16:59N 25°47' W 080°14'0 0.0
2017-Nov-12 16:29N 25°47' W 080°14'0 0.0
2017-Nov-12 15:59N 25°47' W 080°14'0 0.0
2017-Nov-12 15:29N 25°47' W 080°14'0 0.0
2017-Nov-12 14:56N 25°47' W 080°14'0 0.0
2017-Nov-12 14:29N 25°47' W 080°14'0 0.0
2017-Nov-12 13:59N 25°47' W 080°14'0 0.0
2017-Nov-12 13:29N 25°47' W 080°14'0 0.0
2017-Nov-12 12:56N 25°47' W 080°14'0 0.0
2017-Nov-12 12:29N 25°47' W 080°14'0 0.0
2017-Nov-12 11:59N 25°47' W 080°14'0 0.0
2017-Nov-12 11:29N 25°47' W 080°14'0 0.0
2017-Nov-12 10:59N 25°47' W 080°14'0 0.0
2017-Nov-12 10:29N 25°47' W 080°14'0 0.0
2017-Nov-12 09:53N 25°47' W 080°14'0 0.0
2017-Nov-12 09:29N 25°47' W 080°14'0 0.0
2017-Nov-12 08:53N 25°47' W 080°14'0 0.0
2017-Nov-12 08:29N 25°47' W 080°14'0 0.0
2017-Nov-12 07:59N 25°47' W 080°14'0 0.0
2017-Nov-12 07:26N 25°47' W 080°14'0 0.0
2017-Nov-12 06:53N 25°47' W 080°14'0 0.0
2017-Nov-12 06:28N 25°47' W 080°14'0 0.0
2017-Nov-12 05:58N 25°47' W 080°14'0 0.0
2017-Nov-12 05:28N 25°47' W 080°14'0 0.0
2017-Nov-12 04:52N 25°47' W 080°14'0 0.0
2017-Nov-12 04:28N 25°47' W 080°14'0 0.0
2017-Nov-12 03:52N 25°47' W 080°14'0 0.0
2017-Nov-12 03:28N 25°47' W 080°14'0 0.0
2017-Nov-12 02:55N 25°47' W 080°14'0 0.0
2017-Nov-12 02:22N 25°47' W 080°14'0 0.0
2017-Nov-12 01:52N 25°47' W 080°14'0 0.0
2017-Nov-12 01:28N 25°47' W 080°14'0 0.0
2017-Nov-12 00:58N 25°47' W 080°14'0 0.0
2017-Nov-12 00:28N 25°47' W 080°14'0 0.0
2017-Nov-11 23:58N 25°47' W 080°14'0 0.0
2017-Nov-11 23:28N 25°47' W 080°14'0 0.0
2017-Nov-11 22:58N 25°47' W 080°14'0 0.0
2017-Nov-11 22:28N 25°47' W 080°14'0 0.0
2017-Nov-11 21:58N 25°47' W 080°14'0 0.0
2017-Nov-11 21:28N 25°47' W 080°14'0 0.0
2017-Nov-11 20:58N 25°47' W 080°14'0 0.0
2017-Nov-11 20:25N 25°47' W 080°14'0 0.0
2017-Nov-11 19:55N 25°47' W 080°14'0 0.0
2017-Nov-11 19:28N 25°47' W 080°14'0 0.0
2017-Nov-11 18:58N 25°47' W 080°14'0 0.0
2017-Nov-11 18:28N 25°47' W 080°14'0 0.0
2017-Nov-11 17:58N 25°47' W 080°14'0 0.0
2017-Nov-11 17:28N 25°47' W 080°14'0 0.0
2017-Nov-11 16:58N 25°47' W 080°14'0 0.0
2017-Nov-11 16:25N 25°47' W 080°14'0 0.0
2017-Nov-11 15:55N 25°47' W 080°14'0 0.0
2017-Nov-11 15:28N 25°47' W 080°14'0 0.0
2017-Nov-11 14:58N 25°47' W 080°14'0 0.0
2017-Nov-11 14:25N 25°47' W 080°14'0 0.0
2017-Nov-11 13:58N 25°47' W 080°14'0 0.0
2017-Nov-11 13:28N 25°47' W 080°14'0 0.0
2017-Nov-11 12:58N 25°47' W 080°14'0 0.0
2017-Nov-11 12:28N 25°47' W 080°14'0 0.0
2017-Nov-11 11:58N 25°47' W 080°14'0 0.0
2017-Nov-11 11:28N 25°47' W 080°14'0 0.0
2017-Nov-11 10:58N 25°47' W 080°14'0 0.0
2017-Nov-11 10:16N 25°47' W 080°14'0 0.0
2017-Nov-11 09:58N 25°47' W 080°14'0 0.0
2017-Nov-11 09:28N 25°47' W 080°14'0 0.0
2017-Nov-11 08:58N 25°47' W 080°14'0 0.0
2017-Nov-11 08:19N 25°47' W 080°14'0 0.0
2017-Nov-11 07:58N 25°47' W 080°14'0 0.0
2017-Nov-11 07:19N 25°47' W 080°14'0 0.0
2017-Nov-11 06:58N 25°47' W 080°14'0 0.0
2017-Nov-11 06:25N 25°47' W 080°14'0 0.0
2017-Nov-11 05:58N 25°47' W 080°14'0 0.0
2017-Nov-11 05:25N 25°47' W 080°14'0 0.0
2017-Nov-11 04:58N 25°47' W 080°14'0 0.0
2017-Nov-11 04:28N 25°47' W 080°14'0 0.0
2017-Nov-11 03:55N 25°47' W 080°14'0 0.0
2017-Nov-11 03:28N 25°47' W 080°14'0 0.0
2017-Nov-11 02:58N 25°47' W 080°14'0 0.0
2017-Nov-11 02:28N 25°47' W 080°14'0 0.0
2017-Nov-11 01:58N 25°47' W 080°14'0 0.0
2017-Nov-11 01:28N 25°47' W 080°14'0 0.0
2017-Nov-11 00:58N 25°47' W 080°14'0 0.0
2017-Nov-11 00:28N 25°47' W 080°14'0 0.0
2017-Nov-10 23:58N 25°47' W 080°14'0 0.0
2017-Nov-10 23:28N 25°47' W 080°14'0 0.0
2017-Nov-10 22:58N 25°47' W 080°14'0 0.0
2017-Nov-10 22:25N 25°47' W 080°14'0 0.0
2017-Nov-10 21:58N 25°47' W 080°14'0 0.0
2017-Nov-10 21:28N 25°47' W 080°14'0 0.0
2017-Nov-10 20:58N 25°47' W 080°14'0 0.0
2017-Nov-10 20:24N 25°47' W 080°14'0 0.0
2017-Nov-10 19:57N 25°47' W 080°14'0 0.0
2017-Nov-10 19:30N 25°47' W 080°14'0 0.0
2017-Nov-10 19:00N 25°47' W 080°14'0 0.0
2017-Nov-10 18:30N 25°47' W 080°14'0 0.0
2017-Nov-10 17:57N 25°47' W 080°14'0 0.0
2017-Nov-10 17:27N 25°47' W 080°14'0 0.0
2017-Nov-10 16:54N 25°47' W 080°14'0 0.0
2017-Nov-10 16:30N 25°47' W 080°14'0 0.0
2017-Nov-10 15:57N 25°47' W 080°14'0 0.0
2017-Nov-10 15:30N 25°47' W 080°14'0 0.0
2017-Nov-10 14:57N 25°47' W 080°14'0 0.0
2017-Nov-10 14:30N 25°47' W 080°14'0 0.0
2017-Nov-10 13:57N 25°47' W 080°14'0 0.0
2017-Nov-10 13:27N 25°47' W 080°14'0 0.0
2017-Nov-10 13:00N 25°47' W 080°14'0 0.0
2017-Nov-10 12:30N 25°47' W 080°14'0 0.0
2017-Nov-10 12:00N 25°47' W 080°14'0 0.0
2017-Nov-10 11:30N 25°47' W 080°14'0 0.0
2017-Nov-10 11:00N 25°47' W 080°14'0 0.0
2017-Nov-10 10:30N 25°47' W 080°14'0 0.0
2017-Nov-10 10:00N 25°47' W 080°14'0 0.0
2017-Nov-10 09:30N 25°47' W 080°14'0 0.0
2017-Nov-10 09:00N 25°47' W 080°14'0 0.0
2017-Nov-10 08:30N 25°47' W 080°14'0 0.0
2017-Nov-10 08:00N 25°47' W 080°14'0 0.0
2017-Nov-10 07:30N 25°47' W 080°14'0 0.0
2017-Nov-10 07:00N 25°47' W 080°14'0 0.0
2017-Nov-10 06:30N 25°47' W 080°14'0 0.0
2017-Nov-10 06:00N 25°47' W 080°14'0 0.0
2017-Nov-10 05:30N 25°47' W 080°14'0 0.0
2017-Nov-10 05:00N 25°47' W 080°14'0 0.0
2017-Nov-10 04:30N 25°47' W 080°14'0 0.0
2017-Nov-10 04:00N 25°47' W 080°14'0 0.0
2017-Nov-10 03:30N 25°47' W 080°14'0 0.0
2017-Nov-10 03:00N 25°47' W 080°14'0 0.0
2017-Nov-10 02:30N 25°47' W 080°14'0 0.0
2017-Nov-10 01:54N 25°47' W 080°14'0 0.0
2017-Nov-10 01:30N 25°47' W 080°14'0 0.0
2017-Nov-10 01:00N 25°47' W 080°14'0 0.0
2017-Nov-10 00:27N 25°47' W 080°14'0 0.0
2017-Nov-09 23:51N 25°47' W 080°14'0 0.0
2017-Nov-09 23:24N 25°47' W 080°14'0 0.0
2017-Nov-09 22:57N 25°47' W 080°14'0 0.0
2017-Nov-09 22:30N 25°47' W 080°14'0 0.0
2017-Nov-09 21:54N 25°47' W 080°14'0 0.0
2017-Nov-09 21:30N 25°47' W 080°14'0 0.0
2017-Nov-09 21:00N 25°47' W 080°14'0 0.0
2017-Nov-09 20:27N 25°47' W 080°14'0 0.0
2017-Nov-09 19:57N 25°47' W 080°14'0 0.0
2017-Nov-09 19:27N 25°47' W 080°14'0 0.0
2017-Nov-09 18:57N 25°47' W 080°14'  

Dump ship's entire track history